LiveATC.Net - Listen to live air traffic control over the Internet! Contact for advertising information

ICAO: KEMT  IATA: EMT   Airport: El Monte Airport
City: El Monte   State/Province: California
Country: United States   Continent: North America
KEMT METAR Weather: KEMT 281751Z 10004KT 10SM CLR 13/M04 A3013
KEMT Flight Activity (FlightAware)
KEMT Airport Info   (AirNav) (iFlightPlanner)
KEMT VFR Sectional Chart   (iFlightPlanner) 
KEMT IFR Low Chart   (iFlightPlanner) 
KEMT Gnd/Twr
Feed Status: UP   Listeners: 6
Listen right in your browser - requires Flash (in browser, requires Flash)
Click here to listen with your own player (launches your MP3 player)
KEMT Gnd/Twr Audio Archives
El Monte Ground125.900
El Monte Tower121.200
Santa Fe Dam Practice Area123.300


Unauthorized use prohibited. See Terms of Service

Find LiveATC Audio Streams

Airport/ARTCC Code

(e.g., 124.400, 128.75)
Site-wide search

Browse LiveATC Feeds
LiveATC Coverage Map
Top 50 LiveATC Feeds
Bad Weather Areas

Offer a LiveATC Feed
Press Inquiries

LiveATC on iPhone
LiveATC on Android

Windows Phone
Windows 8/10

LiveATC Mobile
(Mobile browser)

ATC Audio Archives
Interesting Recordings

LiveATC Forums

Home Page
Make a Donation
LiveATC Bookstore

Terms of Use
Privacy Policy

ATC/Radar Sites
U.S. ARTCC Freqs
Canadian Air Freqs


FAA Airport Status
Nat'l Airspace Status
Arrival Demand Charts

Server Software By:

Please make a donation to help us keep growing!